createdAt,value
2022-11-24T00:00:55.237Z,38.33
2022-11-24T00:03:23.906Z,36.70
2022-11-24T00:05:52.316Z,37.47
2022-11-24T00:08:20.617Z,36.83
2022-11-24T00:10:48.814Z,37.33
2022-11-24T00:13:18.704Z,36.28
2022-11-24T00:15:47.229Z,36.75
2022-11-24T00:18:15.489Z,35.92
2022-11-24T00:20:43.704Z,36.75
2022-11-24T00:23:12.086Z,37.00
2022-11-24T00:25:40.353Z,36.38
2022-11-24T00:28:08.577Z,35.20
2022-11-24T00:30:38.300Z,34.63
2022-11-24T00:33:06.732Z,34.70
2022-11-24T00:35:34.925Z,34.80
2022-11-24T00:38:05.289Z,34.70
2022-11-24T00:40:35.075Z,34.38
2022-11-24T00:43:03.827Z,33.90
2022-11-24T00:45:32.037Z,33.80
2022-11-24T00:48:02.051Z,32.97
2022-11-24T00:50:30.421Z,32.75
2022-11-24T00:52:58.696Z,32.17
2022-11-24T00:55:27.254Z,32.88
2022-11-24T00:57:55.481Z,32.85
2022-11-24T01:00:23.785Z,32.05
2022-11-24T01:02:52.109Z,31.38
2022-11-24T01:05:21.916Z,31.20
2022-11-24T01:07:50.284Z,30.02
2022-11-24T01:10:18.708Z,31.13
2022-11-24T01:12:47.967Z,29.90
2022-11-24T01:15:16.360Z,31.05
2022-11-24T01:17:44.568Z,30.27
2022-11-24T01:20:13.196Z,29.75
2022-11-24T01:22:42.892Z,29.17
2022-11-24T01:25:11.207Z,29.10
2022-11-24T01:27:39.645Z,28.23
2022-11-24T01:30:08.753Z,28.08
2022-11-24T01:32:37.529Z,28.95
2022-11-24T01:35:06.717Z,27.80
2022-11-24T01:37:35.048Z,27.95
2022-11-24T01:40:06.000Z,27.70
2022-11-24T01:42:52.234Z,26.80
2022-11-24T01:45:35.444Z,26.83
2022-11-24T01:48:05.481Z,26.55
2022-11-24T01:50:33.888Z,26.77
2022-11-24T01:53:02.251Z,25.40
2022-11-24T01:55:34.854Z,25.77
2022-11-24T01:58:04.601Z,25.15
2022-11-24T02:00:32.889Z,25.17
2022-11-24T02:03:01.221Z,23.67
2022-11-24T02:05:32.100Z,24.33
2022-11-24T02:08:01.830Z,23.30
2022-11-24T02:10:30.576Z,23.23
2022-11-24T02:13:00.691Z,23.30
2022-11-24T02:15:29.055Z,23.05
2022-11-24T02:17:57.415Z,23.42
2022-11-24T02:20:25.700Z,22.95
2022-11-24T02:22:56.125Z,22.60
2022-11-24T02:25:29.014Z,21.85
2022-11-24T02:27:59.093Z,22.17
2022-11-24T02:30:27.430Z,21.75
2022-11-24T02:32:55.708Z,21.60
2022-11-24T02:35:24.146Z,20.85
2022-11-24T02:37:52.440Z,20.80
2022-11-24T02:40:25.120Z,21.02
2022-11-24T02:42:53.968Z,20.90
2022-11-24T02:45:24.144Z,20.02
2022-11-24T02:47:52.466Z,20.45
2022-11-24T02:50:20.750Z,19.33
2022-11-24T02:52:52.027Z,19.77
2022-11-24T02:55:20.388Z,19.63
2022-11-24T02:57:48.750Z,19.60
2022-11-24T03:00:18.314Z,18.92
2022-11-24T03:02:48.053Z,18.70
2022-11-24T03:05:16.606Z,19.30
2022-11-24T03:07:45.032Z,18.67
2022-11-24T03:10:13.522Z,17.48
2022-11-24T03:12:41.707Z,18.00
2022-11-24T03:15:10.722Z,18.17
2022-11-24T03:17:39.183Z,18.38
2022-11-24T03:20:10.632Z,18.00
2022-11-24T03:22:38.895Z,17.30
2022-11-24T03:25:07.765Z,17.73
2022-11-24T03:27:36.008Z,16.17
2022-11-24T03:30:04.228Z,16.98
2022-11-24T03:32:32.514Z,17.08
2022-11-24T03:35:00.801Z,16.58
2022-11-24T03:37:30.549Z,16.50
2022-11-24T03:39:58.746Z,16.58
2022-11-24T03:42:26.964Z,15.80
2022-11-24T03:44:55.633Z,16.02
2022-11-24T03:47:23.858Z,15.43
2022-11-24T03:49:52.275Z,16.10
2022-11-24T03:52:22.588Z,15.32
2022-11-24T03:54:52.590Z,16.20
2022-11-24T03:57:20.883Z,15.38
2022-11-24T03:59:49.147Z,14.93
2022-11-24T04:02:17.440Z,14.90
2022-11-24T04:04:50.708Z,14.55
2022-11-24T04:07:19.240Z,14.05
2022-11-24T04:09:47.532Z,14.68
2022-11-24T04:12:34.355Z,13.90
2022-11-24T04:15:03.389Z,14.27
2022-11-24T04:17:31.545Z,13.85
2022-11-24T04:20:00.013Z,13.85
2022-11-24T04:22:28.216Z,14.00
2022-11-24T04:24:56.446Z,13.60
2022-11-24T04:27:26.114Z,14.02
2022-11-24T04:29:54.344Z,12.85
2022-11-24T04:32:22.637Z,13.27
2022-11-24T04:34:51.093Z,13.55
2022-11-24T04:37:19.307Z,12.93
2022-11-24T04:39:47.590Z,12.50
2022-11-24T04:42:15.815Z,12.18
2022-11-24T04:44:45.596Z,12.80
2022-11-24T04:47:14.897Z,12.32
2022-11-24T04:49:43.183Z,12.77
2022-11-24T04:52:11.439Z,11.52
2022-11-24T04:54:39.713Z,12.10
2022-11-24T04:57:08.081Z,11.50
2022-11-24T04:59:36.403Z,11.55
2022-11-24T05:02:06.276Z,11.95
2022-11-24T05:04:34.800Z,11.93
2022-11-24T05:07:03.153Z,11.38
2022-11-24T05:09:55.029Z,11.73
2022-11-24T05:12:19.806Z,11.50
2022-11-24T05:14:48.059Z,11.00
2022-11-24T05:17:17.766Z,11.20
2022-11-24T05:19:46.000Z,10.20
2022-11-24T05:22:14.280Z,10.20
2022-11-24T05:24:42.528Z,11.48
2022-11-24T05:27:10.818Z,11.40
2022-11-24T05:29:39.180Z,12.13
2022-11-24T05:32:07.577Z,12.85
2022-11-24T05:34:37.287Z,12.20
2022-11-24T05:37:05.625Z,12.80
2022-11-24T05:39:34.440Z,12.48
2022-11-24T05:42:23.022Z,12.50
2022-11-24T05:44:51.325Z,12.23
2022-11-24T05:47:19.617Z,12.52
2022-11-24T05:49:49.418Z,12.52
2022-11-24T05:52:17.942Z,13.45
2022-11-24T05:54:46.863Z,17.27
2022-11-24T05:57:15.212Z,19.15
2022-11-24T05:59:43.448Z,20.27
2022-11-24T06:02:11.835Z,22.55
2022-11-24T06:04:40.173Z,25.88
2022-11-24T06:07:10.829Z,25.65
2022-11-24T06:09:39.184Z,22.88
2022-11-24T06:12:08.251Z,20.63
2022-11-24T06:14:36.675Z,28.15
2022-11-24T06:17:05.043Z,24.80
2022-11-24T06:19:36.322Z,23.90
2022-11-24T06:22:06.965Z,28.08
2022-11-24T06:24:36.792Z,29.13
2022-11-24T06:27:05.486Z,25.02
2022-11-24T06:29:33.745Z,32.78
2022-11-24T06:32:02.138Z,35.05
2022-11-24T06:34:30.571Z,33.10
2022-11-24T06:36:58.897Z,34.17
2022-11-24T06:39:27.157Z,36.38
2022-11-24T06:41:56.839Z,30.73
2022-11-24T06:44:25.261Z,34.00
2022-11-24T06:46:53.508Z,31.85
2022-11-24T06:49:21.951Z,32.15
2022-11-24T06:51:50.282Z,31.65
2022-11-24T06:54:21.162Z,32.67
2022-11-24T06:56:49.452Z,34.78
2022-11-24T06:59:19.989Z,32.28
2022-11-24T07:01:48.287Z,35.97
2022-11-24T07:04:16.902Z,37.35
2022-11-24T07:06:45.167Z,36.95
2022-11-24T07:09:14.140Z,36.83
2022-11-24T07:11:42.614Z,35.83
2022-11-24T07:14:10.865Z,35.40
2022-11-24T07:16:41.198Z,37.05
2022-11-24T07:19:10.729Z,34.72
2022-11-24T07:21:38.920Z,37.38
2022-11-24T07:24:08.062Z,34.58
2022-11-24T07:26:37.627Z,33.70
2022-11-24T07:29:06.268Z,33.35
2022-11-24T07:31:34.617Z,33.10
2022-11-24T07:34:04.321Z,31.90
2022-11-24T07:36:32.598Z,31.80
2022-11-24T07:39:01.200Z,32.42
2022-11-24T07:41:29.444Z,33.20
2022-11-24T07:43:57.759Z,33.70
2022-11-24T07:46:26.065Z,31.88
2022-11-24T07:48:54.366Z,31.33
2022-11-24T07:51:24.204Z,31.45
2022-11-24T07:53:52.695Z,31.90
2022-11-24T07:56:20.961Z,32.03
2022-11-24T07:58:52.878Z,31.60
2022-11-24T08:01:21.866Z,29.85
2022-11-24T08:03:53.073Z,30.52
2022-11-24T08:06:26.062Z,30.58
2022-11-24T08:08:57.504Z,29.20
2022-11-24T08:11:26.078Z,29.52
2022-11-24T08:13:54.889Z,29.38
2022-11-24T08:16:23.325Z,29.17
2022-11-24T08:18:51.919Z,28.80
2022-11-24T08:21:20.156Z,28.48
2022-11-24T08:23:48.436Z,28.33
2022-11-24T08:26:19.440Z,28.83
2022-11-24T08:28:50.987Z,27.20
2022-11-24T08:31:20.009Z,27.90
2022-11-24T08:33:48.311Z,27.95
2022-11-24T08:36:17.605Z,27.42
2022-11-24T08:38:45.906Z,26.85
2022-11-24T08:41:14.992Z,27.25
2022-11-24T08:43:44.986Z,27.30
2022-11-24T08:46:14.383Z,26.77
2022-11-24T08:48:42.771Z,26.70
2022-11-24T08:51:11.958Z,25.10
2022-11-24T08:53:40.450Z,25.67
2022-11-24T08:56:09.509Z,25.67
2022-11-24T08:58:37.785Z,25.48
2022-11-24T09:01:08.773Z,24.90
2022-11-24T09:03:37.729Z,24.92
2022-11-24T09:06:06.215Z,24.65
2022-11-24T09:08:34.591Z,24.95
2022-11-24T09:11:03.054Z,24.27
2022-11-24T09:13:31.341Z,23.00
2022-11-24T09:16:04.162Z,23.77
2022-11-24T09:18:33.917Z,24.38
2022-11-24T09:21:09.303Z,22.88
2022-11-24T09:23:38.590Z,23.52
2022-11-24T09:26:07.530Z,23.02
2022-11-24T09:28:35.804Z,22.95
2022-11-24T09:31:04.352Z,22.38
2022-11-24T09:33:34.535Z,22.83
2022-11-24T09:36:02.862Z,22.05
2022-11-24T09:38:31.117Z,23.10
2022-11-24T09:41:07.441Z,22.05
2022-11-24T09:43:38.037Z,21.00
2022-11-24T09:46:07.579Z,21.15
2022-11-24T09:48:38.868Z,21.00
2022-11-24T09:51:07.186Z,21.08
2022-11-24T09:53:37.519Z,21.77
2022-11-24T09:56:12.086Z,21.05
2022-11-24T09:58:43.612Z,20.88
2022-11-24T10:01:14.442Z,19.50
2022-11-24T10:03:44.941Z,19.48
2022-11-24T10:06:31.933Z,19.73
2022-11-24T10:09:17.416Z,19.40
2022-11-24T10:11:48.137Z,19.85
2022-11-24T10:14:42.541Z,19.25
2022-11-24T10:17:15.586Z,17.55
2022-11-24T10:19:47.419Z,18.10
2022-11-24T10:22:23.611Z,17.90
2022-11-24T10:25:00.158Z,17.70
2022-11-24T10:27:30.222Z,17.92
2022-11-24T10:29:58.503Z,16.55
2022-11-24T10:32:27.965Z,16.88
2022-11-24T10:34:57.652Z,16.35
2022-11-24T10:37:29.060Z,16.15
2022-11-24T10:40:01.725Z,15.98
2022-11-24T10:42:31.532Z,16.45
2022-11-24T10:45:02.760Z,15.82
2022-11-24T10:47:31.373Z,16.63
2022-11-24T10:50:02.879Z,16.10
2022-11-24T10:52:31.534Z,17.05
2022-11-24T10:55:00.305Z,15.43
2022-11-24T10:57:32.793Z,14.57
2022-11-24T11:00:01.285Z,15.65
2022-11-24T11:02:34.768Z,15.13
2022-11-24T11:05:43.062Z,14.95
2022-11-24T11:08:19.951Z,14.77
2022-11-24T11:10:48.897Z,14.35
2022-11-24T11:13:24.986Z,14.60
2022-11-24T11:15:53.649Z,14.27
2022-11-24T11:18:22.131Z,12.77
2022-11-24T11:20:51.788Z,12.95
2022-11-24T11:23:25.425Z,13.43
2022-11-24T11:25:53.663Z,12.65
2022-11-24T11:28:28.612Z,12.15
2022-11-24T11:31:17.896Z,12.35
2022-11-24T11:34:05.333Z,13.18
2022-11-24T11:36:35.434Z,11.63
2022-11-24T11:39:05.958Z,11.93
2022-11-24T11:41:35.221Z,11.80
2022-11-24T11:44:10.435Z,11.98
2022-11-24T11:46:38.712Z,11.45
2022-11-24T11:49:07.446Z,11.70
2022-11-24T11:51:46.922Z,12.18
2022-11-24T11:54:19.800Z,10.88
2022-11-24T11:56:49.382Z,11.23
2022-11-24T11:59:56.451Z,10.73
2022-11-24T12:02:58.673Z,11.05
2022-11-24T12:05:31.367Z,10.88
2022-11-24T12:08:10.910Z,10.55
2022-11-24T12:10:43.989Z,10.70
2022-11-24T12:13:40.546Z,10.38
2022-11-24T12:16:13.112Z,9.05
2022-11-24T12:18:59.566Z,9.85
2022-11-24T12:21:31.483Z,9.63
2022-11-24T12:24:05.435Z,9.48
2022-11-24T12:26:40.837Z,8.68
2022-11-24T12:29:33.873Z,8.55
2022-11-24T12:32:06.950Z,8.45
2022-11-24T12:34:40.392Z,8.98
2022-11-24T12:37:29.558Z,9.23
2022-11-24T12:40:02.174Z,8.63
2022-11-24T12:42:37.299Z,8.95
2022-11-24T12:45:16.872Z,8.63
2022-11-24T12:48:10.816Z,8.40
2022-11-24T12:50:40.087Z,8.52
2022-11-24T12:53:12.810Z,8.85
2022-11-24T12:55:41.462Z,8.23
2022-11-24T12:58:14.349Z,8.20
2022-11-24T13:00:48.343Z,8.10
2022-11-24T13:03:24.315Z,8.18
2022-11-24T13:05:54.597Z,7.63
2022-11-24T13:08:22.753Z,8.13
2022-11-24T13:10:56.314Z,7.70
2022-11-24T13:13:28.750Z,7.40
2022-11-24T13:16:35.807Z,7.63
2022-11-24T13:19:10.063Z,7.72
2022-11-24T13:22:01.834Z,7.20
2022-11-24T13:24:32.032Z,7.68
2022-11-24T13:27:41.353Z,7.80
2022-11-24T13:30:52.424Z,7.30
2022-11-24T13:33:32.968Z,6.70
2022-11-24T13:36:39.663Z,6.97
2022-11-24T13:39:10.486Z,7.35
2022-11-24T13:42:09.646Z,6.97
2022-11-24T13:44:58.287Z,6.93
2022-11-24T13:47:37.385Z,6.60
2022-11-24T13:50:09.176Z,7.05
2022-11-24T13:52:47.998Z,6.90
2022-11-24T13:55:25.991Z,7.10
2022-11-24T13:57:55.444Z,6.60
2022-11-24T14:00:24.254Z,6.93
2022-11-24T14:02:52.764Z,6.22
2022-11-24T14:05:24.377Z,6.45
2022-11-24T14:07:52.860Z,6.50
2022-11-24T14:10:23.668Z,7.25
2022-11-24T14:13:19.550Z,6.75
2022-11-24T14:15:50.951Z,5.90
2022-11-24T14:18:21.522Z,5.93
2022-11-24T14:20:51.453Z,5.93
2022-11-24T14:23:19.886Z,6.43
2022-11-24T14:25:48.699Z,6.47
2022-11-24T14:28:19.468Z,6.32
2022-11-24T14:30:48.069Z,6.22
2022-11-24T14:33:18.656Z,5.97
2022-11-24T14:35:47.611Z,6.10
2022-11-24T14:38:17.315Z,6.50
2022-11-24T14:40:47.333Z,5.65
2022-11-24T14:43:22.961Z,8.68
2022-11-24T14:45:52.354Z,8.52
2022-11-24T14:48:22.056Z,9.65
2022-11-24T14:50:50.304Z,9.80
2022-11-24T14:53:25.809Z,8.80
2022-11-24T14:56:24.699Z,9.05
2022-11-24T14:58:53.065Z,9.00
2022-11-24T15:01:24.561Z,9.05
2022-11-24T15:04:32.357Z,8.90
2022-11-24T15:07:12.824Z,8.32
2022-11-24T15:09:50.396Z,8.38
2022-11-24T15:12:28.927Z,8.40
2022-11-24T15:14:59.334Z,8.50
2022-11-24T15:17:28.469Z,8.70
2022-11-24T15:19:58.232Z,8.15
2022-11-24T15:22:37.145Z,8.90
2022-11-24T15:25:37.881Z,9.07
2022-11-24T15:28:06.404Z,8.10
2022-11-24T15:30:35.238Z,8.45
2022-11-24T15:33:04.134Z,8.38
2022-11-24T15:35:33.223Z,8.02
2022-11-24T15:38:01.470Z,8.45
2022-11-24T15:40:31.337Z,8.40
2022-11-24T15:43:03.458Z,8.35
2022-11-24T15:45:35.321Z,8.25
2022-11-24T15:48:04.952Z,7.93
2022-11-24T15:50:33.371Z,8.77
2022-11-24T15:53:01.701Z,8.63
2022-11-24T15:55:31.515Z,8.95
2022-11-24T15:57:59.740Z,8.38
2022-11-24T16:00:28.089Z,8.63
2022-11-24T16:02:56.390Z,9.20
2022-11-24T16:05:24.716Z,9.27
2022-11-24T16:07:53.214Z,8.48
2022-11-24T16:10:26.390Z,8.90
2022-11-24T16:12:56.149Z,9.20
2022-11-24T16:15:24.520Z,8.93
2022-11-24T16:17:52.880Z,10.13
2022-11-24T16:20:21.322Z,11.40
2022-11-24T16:22:49.677Z,10.82
2022-11-24T16:25:18.089Z,11.70
2022-11-24T16:27:46.477Z,11.50
2022-11-24T16:30:16.901Z,10.20
2022-11-24T16:32:45.173Z,10.57
2022-11-24T16:35:13.438Z,10.88
2022-11-24T16:37:41.717Z,11.40
2022-11-24T16:40:11.000Z,11.25
2022-11-24T16:42:39.307Z,10.50
2022-11-24T16:45:08.465Z,10.63
2022-11-24T16:47:41.999Z,11.00
2022-11-24T16:50:10.962Z,10.63
2022-11-24T16:52:39.271Z,10.20
2022-11-24T16:55:09.729Z,10.80
2022-11-24T16:57:38.156Z,10.45
2022-11-24T17:00:07.500Z,10.30
2022-11-24T17:02:36.435Z,10.60
2022-11-24T17:05:06.791Z,10.77
2022-11-24T17:07:36.129Z,9.93
2022-11-24T17:10:04.749Z,10.05
2022-11-24T17:12:33.082Z,11.13
2022-11-24T17:15:31.249Z,10.20
2022-11-24T17:18:16.363Z,10.10
2022-11-24T17:20:39.265Z,9.82
2022-11-24T17:23:07.593Z,10.15
2022-11-24T17:25:35.813Z,10.27
2022-11-24T17:28:04.169Z,10.13
2022-11-24T17:30:32.810Z,9.80
2022-11-24T17:33:01.073Z,9.82
2022-11-24T17:35:29.364Z,9.55
2022-11-24T17:38:00.929Z,9.77
2022-11-24T17:40:29.716Z,9.43
2022-11-24T17:43:00.640Z,10.13
2022-11-24T17:45:29.144Z,10.05
2022-11-24T17:47:57.537Z,10.73
2022-11-24T17:50:26.598Z,10.77
2022-11-24T17:52:55.407Z,9.77
2022-11-24T17:55:25.227Z,10.07
2022-11-24T17:57:53.426Z,10.73
2022-11-24T18:00:22.051Z,10.77
2022-11-24T18:02:53.559Z,9.70
2022-11-24T18:05:22.215Z,9.93
2022-11-24T18:07:50.500Z,10.07
2022-11-24T18:10:19.187Z,10.40
2022-11-24T18:12:50.924Z,9.98
2022-11-24T18:15:19.226Z,9.93
2022-11-24T18:17:47.478Z,10.18
2022-11-24T18:20:16.038Z,9.68
2022-11-24T18:23:05.064Z,9.73
2022-11-24T18:25:33.484Z,9.93
2022-11-24T18:28:03.173Z,10.02
2022-11-24T18:30:31.429Z,10.07
2022-11-24T18:32:59.955Z,10.30
2022-11-24T18:35:28.228Z,9.88
2022-11-24T18:37:56.417Z,10.02
2022-11-24T18:40:24.759Z,9.32
2022-11-24T18:42:52.968Z,9.43
2022-11-24T18:45:22.687Z,9.48
2022-11-24T18:47:50.965Z,9.15
2022-11-24T18:50:19.845Z,9.38
2022-11-24T18:52:48.024Z,9.30
2022-11-24T18:55:16.373Z,9.23
2022-11-24T18:57:44.637Z,8.65
2022-11-24T19:00:14.344Z,9.55
2022-11-24T19:02:44.257Z,9.50
2022-11-24T19:05:12.605Z,9.98
2022-11-24T19:07:41.136Z,10.27
2022-11-24T19:10:10.541Z,9.32
2022-11-24T19:12:38.773Z,9.35
2022-11-24T19:15:08.216Z,8.82
2022-11-24T19:17:36.449Z,9.00
2022-11-24T19:20:07.534Z,9.68
2022-11-24T19:22:35.955Z,9.55
2022-11-24T19:25:04.312Z,9.10
2022-11-24T19:27:34.264Z,8.73
2022-11-24T19:30:02.498Z,8.90
2022-11-24T19:32:32.566Z,9.10
2022-11-24T19:35:00.836Z,18.52
2022-11-24T19:37:30.569Z,25.00
2022-11-24T19:39:59.039Z,27.10
2022-11-24T19:42:27.219Z,25.42
2022-11-24T19:44:56.797Z,24.48
2022-11-24T19:47:25.685Z,26.65
2022-11-24T19:49:54.056Z,25.70
2022-11-24T19:52:22.821Z,25.77
2022-11-24T19:54:52.507Z,25.55
2022-11-24T19:57:21.048Z,26.00
2022-11-24T19:59:49.337Z,26.05
2022-11-24T20:02:22.205Z,28.15
2022-11-24T20:04:50.714Z,30.75
2022-11-24T20:07:29.274Z,30.13
2022-11-24T20:10:08.048Z,35.47
2022-11-24T20:12:43.066Z,32.88
2022-11-24T20:15:11.808Z,33.90
2022-11-24T20:17:40.453Z,36.10
2022-11-24T20:20:14.887Z,38.30
2022-11-24T20:23:04.355Z,38.20
2022-11-24T20:25:41.780Z,38.55
2022-11-24T20:28:15.476Z,38.25
2022-11-24T20:30:44.161Z,37.85
2022-11-24T20:33:15.830Z,38.63
2022-11-24T20:35:51.901Z,37.00
2022-11-24T20:38:20.829Z,37.85
2022-11-24T20:40:50.683Z,37.22
2022-11-24T20:43:19.388Z,37.83
2022-11-24T20:45:47.864Z,36.85
2022-11-24T20:48:16.269Z,34.80
2022-11-24T20:50:49.787Z,33.92
2022-11-24T20:53:19.644Z,34.20
2022-11-24T20:55:47.898Z,33.63
2022-11-24T20:58:17.692Z,33.63
2022-11-24T21:00:46.044Z,34.28
2022-11-24T21:03:14.648Z,33.55
2022-11-24T21:05:43.080Z,33.03
2022-11-24T21:08:11.501Z,31.95
2022-11-24T21:10:39.801Z,31.80
2022-11-24T21:13:08.228Z,31.17
2022-11-24T21:15:38.160Z,30.80
2022-11-24T21:18:06.532Z,30.85
2022-11-24T21:20:35.182Z,29.75
2022-11-24T21:23:05.131Z,30.77
2022-11-24T21:25:33.390Z,30.13
2022-11-24T21:28:01.748Z,30.33
2022-11-24T21:30:29.942Z,29.95
2022-11-24T21:32:59.682Z,30.63
2022-11-24T21:35:27.926Z,30.92
2022-11-24T21:37:56.429Z,29.77
2022-11-24T21:40:24.768Z,30.80
2022-11-24T21:42:53.037Z,29.73
2022-11-24T21:45:21.341Z,29.73
2022-11-24T21:47:50.109Z,30.08
2022-11-24T21:50:19.896Z,29.45
2022-11-24T21:52:48.317Z,28.35
2022-11-24T21:55:16.724Z,28.83
2022-11-24T21:57:45.017Z,28.60
2022-11-24T22:00:14.293Z,27.80
2022-11-24T22:02:42.589Z,28.58
2022-11-24T22:05:11.276Z,28.05
2022-11-24T22:07:41.097Z,27.30
2022-11-24T22:10:10.713Z,27.88
2022-11-24T22:12:38.929Z,28.23
2022-11-24T22:15:08.165Z,28.65
2022-11-24T22:17:36.461Z,27.80
2022-11-24T22:20:05.202Z,27.95
2022-11-24T22:22:33.650Z,26.70
2022-11-24T22:25:03.499Z,27.08
2022-11-24T22:27:31.928Z,27.35
2022-11-24T22:30:00.152Z,26.58
2022-11-24T22:32:28.381Z,26.13
2022-11-24T22:34:56.686Z,27.13
2022-11-24T22:37:24.991Z,26.02
2022-11-24T22:39:53.279Z,26.02
2022-11-24T22:42:23.008Z,26.08
2022-11-24T22:44:51.337Z,25.40
2022-11-24T22:47:19.676Z,25.55
2022-11-24T22:49:48.128Z,25.40
2022-11-24T22:52:16.324Z,25.30
2022-11-24T22:54:44.702Z,25.25
2022-11-24T22:57:12.903Z,25.48
2022-11-24T22:59:42.736Z,24.88
2022-11-24T23:02:11.129Z,25.23
2022-11-24T23:04:39.545Z,23.88
2022-11-24T23:07:07.854Z,23.80
2022-11-24T23:09:36.070Z,23.98
2022-11-24T23:12:04.525Z,24.55
2022-11-24T23:14:32.968Z,23.85
2022-11-24T23:17:02.755Z,24.10
2022-11-24T23:19:31.089Z,22.80
2022-11-24T23:21:59.348Z,22.58
2022-11-24T23:24:27.621Z,23.02
2022-11-24T23:26:55.908Z,22.85
2022-11-24T23:29:24.142Z,23.50
2022-11-24T23:31:52.488Z,22.40
2022-11-24T23:34:22.177Z,21.95
2022-11-24T23:36:50.408Z,22.25
2022-11-24T23:39:18.652Z,22.65
2022-11-24T23:41:47.038Z,22.23
2022-11-24T23:44:15.461Z,21.35
2022-11-24T23:46:43.798Z,20.98
2022-11-24T23:49:12.017Z,21.40
2022-11-24T23:51:42.250Z,21.65
2022-11-24T23:54:10.783Z,21.45
2022-11-24T23:56:38.985Z,21.40
2022-11-24T23:59:07.297Z,21.15
